sensor_id;sensor_type;location;lat;lon;timestamp;P1;durP1;ratioP1;P2;durP2;ratioP2
13866;SDS011;7003;46.982;15.248;2023-04-01T00:00:20;2.22;;;1.70;;
13866;SDS011;7003;46.982;15.248;2023-04-01T00:02:47;1.90;;;1.55;;
13866;SDS011;7003;46.982;15.248;2023-04-01T00:05:17;1.35;;;1.05;;
13866;SDS011;7003;46.982;15.248;2023-04-01T00:07:45;2.50;;;2.03;;
13866;SDS011;7003;46.982;15.248;2023-04-01T00:10:13;1.73;;;1.60;;
13866;SDS011;7003;46.982;15.248;2023-04-01T00:12:43;2.08;;;1.80;;
13866;SDS011;7003;46.982;15.248;2023-04-01T00:15:13;1.95;;;1.80;;
13866;SDS011;7003;46.982;15.248;2023-04-01T00:17:43;2.03;;;1.58;;
13866;SDS011;7003;46.982;15.248;2023-04-01T00:20:11;2.78;;;2.20;;
13866;SDS011;7003;46.982;15.248;2023-04-01T00:22:43;2.45;;;1.88;;
13866;SDS011;7003;46.982;15.248;2023-04-01T00:25:13;2.00;;;1.75;;
13866;SDS011;7003;46.982;15.248;2023-04-01T00:27:40;2.25;;;2.05;;
13866;SDS011;7003;46.982;15.248;2023-04-01T00:30:09;2.05;;;1.90;;
13866;SDS011;7003;46.982;15.248;2023-04-01T00:32:41;1.73;;;1.55;;
13866;SDS011;7003;46.982;15.248;2023-04-01T00:35:08;3.47;;;2.50;;
13866;SDS011;7003;46.982;15.248;2023-04-01T00:37:41;2.28;;;2.13;;
13866;SDS011;7003;46.982;15.248;2023-04-01T00:40:20;2.42;;;1.92;;
13866;SDS011;7003;46.982;15.248;2023-04-01T00:42:55;2.17;;;1.70;;
13866;SDS011;7003;46.982;15.248;2023-04-01T00:45:25;4.05;;;2.15;;
13866;SDS011;7003;46.982;15.248;2023-04-01T00:47:58;4.23;;;2.43;;
13866;SDS011;7003;46.982;15.248;2023-04-01T00:50:32;1.40;;;1.30;;
13866;SDS011;7003;46.982;15.248;2023-04-01T00:53:01;2.38;;;1.65;;
13866;SDS011;7003;46.982;15.248;2023-04-01T00:55:32;2.97;;;1.30;;
13866;SDS011;7003;46.982;15.248;2023-04-01T00:58:03;2.92;;;1.95;;
13866;SDS011;7003;46.982;15.248;2023-04-01T01:00:37;3.17;;;2.13;;
13866;SDS011;7003;46.982;15.248;2023-04-01T01:03:05;1.47;;;1.37;;
13866;SDS011;7003;46.982;15.248;2023-04-01T01:05:38;1.83;;;1.67;;
13866;SDS011;7003;46.982;15.248;2023-04-01T01:08:22;2.13;;;1.33;;
13866;SDS011;7003;46.982;15.248;2023-04-01T01:11:01;2.22;;;1.92;;
13866;SDS011;7003;46.982;15.248;2023-04-01T01:13:33;1.60;;;1.50;;
13866;SDS011;7003;46.982;15.248;2023-04-01T01:16:10;1.63;;;1.00;;
13866;SDS011;7003;46.982;15.248;2023-04-01T01:18:46;3.65;;;1.35;;
13866;SDS011;7003;46.982;15.248;2023-04-01T01:21:32;3.72;;;2.35;;
13866;SDS011;7003;46.982;15.248;2023-04-01T01:24:18;1.93;;;1.47;;
13866;SDS011;7003;46.982;15.248;2023-04-01T01:27:02;2.28;;;1.48;;
13866;SDS011;7003;46.982;15.248;2023-04-01T01:29:41;2.33;;;1.77;;
13866;SDS011;7003;46.982;15.248;2023-04-01T01:32:31;1.95;;;1.35;;
13866;SDS011;7003;46.982;15.248;2023-04-01T01:35:22;1.67;;;1.42;;
13866;SDS011;7003;46.982;15.248;2023-04-01T01:38:03;1.37;;;1.27;;
13866;SDS011;7003;46.982;15.248;2023-04-01T01:40:32;1.20;;;1.20;;
13866;SDS011;7003;46.982;15.248;2023-04-01T01:43:06;2.10;;;1.67;;
13866;SDS011;7003;46.982;15.248;2023-04-01T01:45:39;1.80;;;1.63;;
13866;SDS011;7003;46.982;15.248;2023-04-01T01:48:10;1.88;;;1.50;;
13866;SDS011;7003;46.982;15.248;2023-04-01T01:50:40;2.00;;;1.17;;
13866;SDS011;7003;46.982;15.248;2023-04-01T01:53:09;2.43;;;1.93;;
13866;SDS011;7003;46.982;15.248;2023-04-01T01:55:38;3.53;;;1.37;;
13866;SDS011;7003;46.982;15.248;2023-04-01T01:58:10;1.57;;;1.10;;
13866;SDS011;7003;46.982;15.248;2023-04-01T02:00:40;1.30;;;1.10;;
13866;SDS011;7003;46.982;15.248;2023-04-01T02:03:14;1.70;;;1.50;;
13866;SDS011;7003;46.982;15.248;2023-04-01T02:05:44;2.73;;;2.03;;
13866;SDS011;7003;46.982;15.248;2023-04-01T02:08:13;1.63;;;1.40;;
13866;SDS011;7003;46.982;15.248;2023-04-01T02:10:44;1.87;;;1.77;;
13866;SDS011;7003;46.982;15.248;2023-04-01T02:13:18;1.20;;;1.10;;
13866;SDS011;7003;46.982;15.248;2023-04-01T02:15:56;2.57;;;1.80;;
13866;SDS011;7003;46.982;15.248;2023-04-01T02:18:28;1.87;;;1.73;;
13866;SDS011;7003;46.982;15.248;2023-04-01T02:21:01;1.80;;;1.70;;
13866;SDS011;7003;46.982;15.248;2023-04-01T02:23:32;2.33;;;1.73;;
13866;SDS011;7003;46.982;15.248;2023-04-01T02:26:04;1.40;;;1.23;;
13866;SDS011;7003;46.982;15.248;2023-04-01T02:28:34;4.17;;;1.80;;
13866;SDS011;7003;46.982;15.248;2023-04-01T02:31:05;1.63;;;1.40;;
13866;SDS011;7003;46.982;15.248;2023-04-01T02:33:34;2.23;;;1.73;;
13866;SDS011;7003;46.982;15.248;2023-04-01T02:36:06;1.37;;;1.27;;
13866;SDS011;7003;46.982;15.248;2023-04-01T02:38:37;1.60;;;1.37;;
13866;SDS011;7003;46.982;15.248;2023-04-01T02:41:07;1.67;;;1.53;;
13866;SDS011;7003;46.982;15.248;2023-04-01T02:43:35;5.23;;;1.30;;
13866;SDS011;7003;46.982;15.248;2023-04-01T02:46:02;1.40;;;1.30;;
13866;SDS011;7003;46.982;15.248;2023-04-01T02:48:32;3.30;;;1.60;;
13866;SDS011;7003;46.982;15.248;2023-04-01T02:51:01;1.53;;;1.43;;
13866;SDS011;7003;46.982;15.248;2023-04-01T02:53:31;2.10;;;1.55;;
13866;SDS011;7003;46.982;15.248;2023-04-01T02:55:58;1.90;;;1.60;;
13866;SDS011;7003;46.982;15.248;2023-04-01T02:58:25;3.33;;;1.10;;
13866;SDS011;7003;46.982;15.248;2023-04-01T03:00:52;1.30;;;1.20;;
13866;SDS011;7003;46.982;15.248;2023-04-01T03:03:20;1.37;;;1.27;;
13866;SDS011;7003;46.982;15.248;2023-04-01T03:05:48;2.90;;;1.90;;
13866;SDS011;7003;46.982;15.248;2023-04-01T03:08:15;1.90;;;1.60;;
13866;SDS011;7003;46.982;15.248;2023-04-01T03:10:44;4.23;;;1.63;;
13866;SDS011;7003;46.982;15.248;2023-04-01T03:13:15;1.57;;;1.47;;
13866;SDS011;7003;46.982;15.248;2023-04-01T03:15:45;1.77;;;1.67;;
13866;SDS011;7003;46.982;15.248;2023-04-01T03:18:13;1.97;;;1.40;;
13866;SDS011;7003;46.982;15.248;2023-04-01T03:20:42;1.73;;;1.63;;
13866;SDS011;7003;46.982;15.248;2023-04-01T03:23:12;1.63;;;1.50;;
13866;SDS011;7003;46.982;15.248;2023-04-01T03:25:40;1.30;;;1.20;;
13866;SDS011;7003;46.982;15.248;2023-04-01T03:28:10;1.37;;;1.20;;
13866;SDS011;7003;46.982;15.248;2023-04-01T03:30:41;1.63;;;1.40;;
13866;SDS011;7003;46.982;15.248;2023-04-01T03:33:11;1.50;;;1.40;;
13866;SDS011;7003;46.982;15.248;2023-04-01T03:35:39;2.00;;;1.80;;
13866;SDS011;7003;46.982;15.248;2023-04-01T03:38:06;1.50;;;1.40;;
13866;SDS011;7003;46.982;15.248;2023-04-01T03:40:36;1.30;;;0.90;;
13866;SDS011;7003;46.982;15.248;2023-04-01T03:43:05;3.10;;;1.33;;
13866;SDS011;7003;46.982;15.248;2023-04-01T03:45:35;1.83;;;1.67;;
13866;SDS011;7003;46.982;15.248;2023-04-01T03:48:04;2.73;;;1.43;;
13866;SDS011;7003;46.982;15.248;2023-04-01T03:50:34;1.13;;;0.80;;
13866;SDS011;7003;46.982;15.248;2023-04-01T03:53:01;2.40;;;2.07;;
13866;SDS011;7003;46.982;15.248;2023-04-01T03:55:29;1.50;;;1.40;;
13866;SDS011;7003;46.982;15.248;2023-04-01T03:57:59;1.53;;;1.20;;
13866;SDS011;7003;46.982;15.248;2023-04-01T04:00:27;2.50;;;1.33;;
13866;SDS011;7003;46.982;15.248;2023-04-01T04:02:57;1.30;;;1.20;;
13866;SDS011;7003;46.982;15.248;2023-04-01T04:05:24;2.07;;;1.50;;
13866;SDS011;7003;46.982;15.248;2023-04-01T04:07:53;1.90;;;1.60;;
13866;SDS011;7003;46.982;15.248;2023-04-01T04:10:21;0.93;;;0.90;;
13866;SDS011;7003;46.982;15.248;2023-04-01T04:12:50;1.77;;;1.40;;
13866;SDS011;7003;46.982;15.248;2023-04-01T04:15:21;1.30;;;1.20;;
13866;SDS011;7003;46.982;15.248;2023-04-01T04:17:49;1.60;;;1.50;;
13866;SDS011;7003;46.982;15.248;2023-04-01T04:20:17;1.40;;;1.30;;
13866;SDS011;7003;46.982;15.248;2023-04-01T04:22:45;1.23;;;1.13;;
13866;SDS011;7003;46.982;15.248;2023-04-01T04:25:15;1.47;;;1.37;;
13866;SDS011;7003;46.982;15.248;2023-04-01T04:27:45;1.63;;;1.33;;
13866;SDS011;7003;46.982;15.248;2023-04-01T04:30:15;1.33;;;1.23;;
13866;SDS011;7003;46.982;15.248;2023-04-01T04:32:43;1.70;;;1.10;;
13866;SDS011;7003;46.982;15.248;2023-04-01T04:35:11;2.33;;;1.47;;
13866;SDS011;7003;46.982;15.248;2023-04-01T04:37:43;7.07;;;2.17;;
13866;SDS011;7003;46.982;15.248;2023-04-01T04:40:11;2.13;;;1.60;;
13866;SDS011;7003;46.982;15.248;2023-04-01T04:42:42;3.23;;;2.40;;
13866;SDS011;7003;46.982;15.248;2023-04-01T04:45:12;2.97;;;1.83;;
13866;SDS011;7003;46.982;15.248;2023-04-01T04:47:41;4.03;;;2.20;;
13866;SDS011;7003;46.982;15.248;2023-04-01T04:50:15;1.33;;;0.93;;
13866;SDS011;7003;46.982;15.248;2023-04-01T04:52:49;1.80;;;1.70;;
13866;SDS011;7003;46.982;15.248;2023-04-01T04:55:18;2.37;;;2.10;;
13866;SDS011;7003;46.982;15.248;2023-04-01T04:57:51;1.60;;;1.50;;
13866;SDS011;7003;46.982;15.248;2023-04-01T05:00:22;0.90;;;0.87;;
13866;SDS011;7003;46.982;15.248;2023-04-01T05:03:00;1.37;;;1.27;;
13866;SDS011;7003;46.982;15.248;2023-04-01T05:05:30;1.00;;;1.00;;
13866;SDS011;7003;46.982;15.248;2023-04-01T05:08:04;1.30;;;1.20;;
13866;SDS011;7003;46.982;15.248;2023-04-01T05:10:34;1.60;;;1.50;;
13866;SDS011;7003;46.982;15.248;2023-04-01T05:13:05;3.27;;;1.70;;
13866;SDS011;7003;46.982;15.248;2023-04-01T05:15:36;2.07;;;1.87;;
13866;SDS011;7003;46.982;15.248;2023-04-01T05:18:05;2.43;;;1.43;;
13866;SDS011;7003;46.982;15.248;2023-04-01T05:20:35;1.70;;;1.60;;
13866;SDS011;7003;46.982;15.248;2023-04-01T05:23:07;2.07;;;1.30;;
13866;SDS011;7003;46.982;15.248;2023-04-01T05:25:37;1.40;;;1.23;;
13866;SDS011;7003;46.982;15.248;2023-04-01T05:28:07;1.17;;;1.07;;
13866;SDS011;7003;46.982;15.248;2023-04-01T05:30:36;1.90;;;1.50;;
13866;SDS011;7003;46.982;15.248;2023-04-01T05:33:09;1.53;;;1.43;;
13866;SDS011;7003;46.982;15.248;2023-04-01T05:35:40;2.73;;;2.00;;
13866;SDS011;7003;46.982;15.248;2023-04-01T05:38:12;1.33;;;1.23;;
13866;SDS011;7003;46.982;15.248;2023-04-01T05:40:42;1.83;;;1.23;;
13866;SDS011;7003;46.982;15.248;2023-04-01T05:43:11;1.53;;;1.40;;
13866;SDS011;7003;46.982;15.248;2023-04-01T05:45:41;2.37;;;2.13;;
13866;SDS011;7003;46.982;15.248;2023-04-01T05:48:11;1.60;;;1.10;;
13866;SDS011;7003;46.982;15.248;2023-04-01T05:50:40;1.70;;;1.43;;
13866;SDS011;7003;46.982;15.248;2023-04-01T05:53:14;3.33;;;2.17;;
13866;SDS011;7003;46.982;15.248;2023-04-01T05:55:44;2.27;;;2.07;;
13866;SDS011;7003;46.982;15.248;2023-04-01T05:58:14;1.80;;;1.33;;
13866;SDS011;7003;46.982;15.248;2023-04-01T06:00:46;2.00;;;1.67;;
13866;SDS011;7003;46.982;15.248;2023-04-01T06:03:17;1.67;;;1.57;;
13866;SDS011;7003;46.982;15.248;2023-04-01T06:05:48;1.97;;;1.77;;
13866;SDS011;7003;46.982;15.248;2023-04-01T06:08:20;2.70;;;1.77;;
13866;SDS011;7003;46.982;15.248;2023-04-01T06:10:55;2.90;;;2.67;;
13866;SDS011;7003;46.982;15.248;2023-04-01T06:13:39;1.40;;;1.30;;
13866;SDS011;7003;46.982;15.248;2023-04-01T06:16:32;3.27;;;1.63;;
13866;SDS011;7003;46.982;15.248;2023-04-01T06:19:22;1.83;;;1.67;;
13866;SDS011;7003;46.982;15.248;2023-04-01T06:25:19;2.60;;;2.38;;
13866;SDS011;7003;46.982;15.248;2023-04-01T06:28:20;2.50;;;2.30;;
13866;SDS011;7003;46.982;15.248;2023-04-01T06:31:14;1.52;;;1.42;;
13866;SDS011;7003;46.982;15.248;2023-04-01T06:34:01;2.40;;;2.20;;
13866;SDS011;7003;46.982;15.248;2023-04-01T06:36:50;3.65;;;2.33;;
13866;SDS011;7003;46.982;15.248;2023-04-01T06:42:54;2.28;;;2.08;;
13866;SDS011;7003;46.982;15.248;2023-04-01T06:45:37;5.05;;;2.40;;
13866;SDS011;7003;46.982;15.248;2023-04-01T06:48:21;2.25;;;2.05;;
13866;SDS011;7003;46.982;15.248;2023-04-01T06:51:11;7.72;;;2.40;;
13866;SDS011;7003;46.982;15.248;2023-04-01T06:53:49;2.13;;;1.92;;
13866;SDS011;7003;46.982;15.248;2023-04-01T06:56:22;2.70;;;1.92;;
13866;SDS011;7003;46.982;15.248;2023-04-01T06:58:55;2.00;;;1.67;;
13866;SDS011;7003;46.982;15.248;2023-04-01T07:01:28;2.50;;;1.75;;
13866;SDS011;7003;46.982;15.248;2023-04-01T07:04:05;1.70;;;1.50;;
13866;SDS011;7003;46.982;15.248;2023-04-01T07:06:42;1.17;;;1.08;;
13866;SDS011;7003;46.982;15.248;2023-04-01T07:09:16;2.03;;;1.35;;
13866;SDS011;7003;46.982;15.248;2023-04-01T07:11:47;1.90;;;1.50;;
13866;SDS011;7003;46.982;15.248;2023-04-01T07:14:19;5.55;;;1.50;;
13866;SDS011;7003;46.982;15.248;2023-04-01T07:16:54;1.55;;;1.35;;
13866;SDS011;7003;46.982;15.248;2023-04-01T07:19:31;1.58;;;1.48;;
13866;SDS011;7003;46.982;15.248;2023-04-01T07:22:05;1.63;;;1.33;;
13866;SDS011;7003;46.982;15.248;2023-04-01T07:24:44;2.88;;;1.10;;
13866;SDS011;7003;46.982;15.248;2023-04-01T07:27:13;1.88;;;1.30;;
13866;SDS011;7003;46.982;15.248;2023-04-01T07:29:43;1.17;;;1.05;;
13866;SDS011;7003;46.982;15.248;2023-04-01T07:32:16;2.15;;;1.80;;
13866;SDS011;7003;46.982;15.248;2023-04-01T07:34:54;2.58;;;1.33;;
13866;SDS011;7003;46.982;15.248;2023-04-01T07:37:32;2.03;;;1.15;;
13866;SDS011;7003;46.982;15.248;2023-04-01T07:40:12;2.53;;;1.65;;
13866;SDS011;7003;46.982;15.248;2023-04-01T07:42:53;0.82;;;0.75;;
13866;SDS011;7003;46.982;15.248;2023-04-01T07:45:36;1.65;;;1.55;;
13866;SDS011;7003;46.982;15.248;2023-04-01T07:48:14;1.55;;;1.45;;
13866;SDS011;7003;46.982;15.248;2023-04-01T07:50:55;3.05;;;1.27;;
13866;SDS011;7003;46.982;15.248;2023-04-01T07:53:32;1.08;;;0.80;;
13866;SDS011;7003;46.982;15.248;2023-04-01T07:56:05;0.70;;;0.70;;
13866;SDS011;7003;46.982;15.248;2023-04-01T07:58:38;0.68;;;0.68;;
13866;SDS011;7003;46.982;15.248;2023-04-01T08:01:16;1.08;;;1.00;;
13866;SDS011;7003;46.982;15.248;2023-04-01T08:03:56;2.90;;;1.05;;
13866;SDS011;7003;46.982;15.248;2023-04-01T08:06:43;1.05;;;0.75;;
13866;SDS011;7003;46.982;15.248;2023-04-01T08:09:21;1.48;;;1.08;;
13866;SDS011;7003;46.982;15.248;2023-04-01T08:12:04;1.15;;;1.02;;
13866;SDS011;7003;46.982;15.248;2023-04-01T08:14:44;3.80;;;0.80;;
13866;SDS011;7003;46.982;15.248;2023-04-01T08:17:27;0.73;;;0.73;;
13866;SDS011;7003;46.982;15.248;2023-04-01T08:20:10;0.45;;;0.45;;
13866;SDS011;7003;46.982;15.248;2023-04-01T08:22:51;1.10;;;0.90;;
13866;SDS011;7003;46.982;15.248;2023-04-01T08:25:25;0.77;;;0.77;;
13866;SDS011;7003;46.982;15.248;2023-04-01T08:27:59;1.00;;;0.73;;
13866;SDS011;7003;46.982;15.248;2023-04-01T08:30:35;1.15;;;1.02;;
13866;SDS011;7003;46.982;15.248;2023-04-01T08:33:12;2.40;;;0.68;;
13866;SDS011;7003;46.982;15.248;2023-04-01T08:35:47;1.17;;;0.90;;
13866;SDS011;7003;46.982;15.248;2023-04-01T08:38:21;0.40;;;0.40;;
13866;SDS011;7003;46.982;15.248;2023-04-01T08:41:01;2.00;;;0.80;;
13866;SDS011;7003;46.982;15.248;2023-04-01T08:47:16;3.38;;;0.47;;
13866;SDS011;7003;46.982;15.248;2023-04-01T08:50:18;0.75;;;0.40;;
13866;SDS011;7003;46.982;15.248;2023-04-01T08:53:00;0.73;;;0.35;;
13866;SDS011;7003;46.982;15.248;2023-04-01T08:55:37;0.73;;;0.50;;
13866;SDS011;7003;46.982;15.248;2023-04-01T09:01:15;1.35;;;1.25;;
13866;SDS011;7003;46.982;15.248;2023-04-01T09:04:05;0.30;;;0.30;;
13866;SDS011;7003;46.982;15.248;2023-04-01T09:06:51;1.23;;;0.90;;
13866;SDS011;7003;46.982;15.248;2023-04-01T09:09:40;0.35;;;0.35;;
13866;SDS011;7003;46.982;15.248;2023-04-01T09:12:38;1.70;;;0.50;;
13866;SDS011;7003;46.982;15.248;2023-04-01T09:15:31;0.40;;;0.40;;
13866;SDS011;7003;46.982;15.248;2023-04-01T09:21:32;0.30;;;0.30;;
13866;SDS011;7003;46.982;15.248;2023-04-01T09:27:14;0.30;;;0.30;;
13866;SDS011;7003;46.982;15.248;2023-04-01T09:30:10;0.52;;;0.52;;
13866;SDS011;7003;46.982;15.248;2023-04-01T09:36:07;0.17;;;0.17;;
13866;SDS011;7003;46.982;15.248;2023-04-01T09:38:48;0.20;;;0.20;;
13866;SDS011;7003;46.982;15.248;2023-04-01T09:41:30;0.15;;;0.15;;
13866;SDS011;7003;46.982;15.248;2023-04-01T09:44:01;0.47;;;0.30;;
13866;SDS011;7003;46.982;15.248;2023-04-01T09:46:35;0.20;;;0.20;;
13866;SDS011;7003;46.982;15.248;2023-04-01T09:49:18;0.52;;;0.30;;
13866;SDS011;7003;46.982;15.248;2023-04-01T09:52:01;0.50;;;0.38;;
13866;SDS011;7003;46.982;15.248;2023-04-01T09:54:43;0.70;;;0.32;;
13866;SDS011;7003;46.982;15.248;2023-04-01T09:57:35;0.82;;;0.57;;
13866;SDS011;7003;46.982;15.248;2023-04-01T10:03:35;0.32;;;0.30;;
13866;SDS011;7003;46.982;15.248;2023-04-01T10:06:36;0.10;;;0.10;;
13866;SDS011;7003;46.982;15.248;2023-04-01T10:12:51;0.43;;;0.38;;
13866;SDS011;7003;46.982;15.248;2023-04-01T10:21:45;0.43;;;0.40;;
13866;SDS011;7003;46.982;15.248;2023-04-01T10:30:41;0.30;;;0.30;;
13866;SDS011;7003;46.982;15.248;2023-04-01T10:33:47;0.50;;;0.32;;
13866;SDS011;7003;46.982;15.248;2023-04-01T10:36:41;0.65;;;0.35;;
13866;SDS011;7003;46.982;15.248;2023-04-01T10:45:52;0.30;;;0.30;;
13866;SDS011;7003;46.982;15.248;2023-04-01T10:49:17;0.13;;;0.13;;
13866;SDS011;7003;46.982;15.248;2023-04-01T10:55:31;0.45;;;0.45;;
13866;SDS011;7003;46.982;15.248;2023-04-01T10:58:22;0.20;;;0.20;;
13866;SDS011;7003;46.982;15.248;2023-04-01T11:01:36;0.20;;;0.20;;
13866;SDS011;7003;46.982;15.248;2023-04-01T11:13:32;0.20;;;0.20;;
13866;SDS011;7003;46.982;15.248;2023-04-01T11:19:51;0.10;;;0.10;;
13866;SDS011;7003;46.982;15.248;2023-04-01T11:22:47;0.35;;;0.35;;
13866;SDS011;7003;46.982;15.248;2023-04-01T11:25:36;0.52;;;0.40;;
13866;SDS011;7003;46.982;15.248;2023-04-01T11:28:20;0.20;;;0.20;;
13866;SDS011;7003;46.982;15.248;2023-04-01T11:31:11;0.40;;;0.40;;
13866;SDS011;7003;46.982;15.248;2023-04-01T11:34:01;0.20;;;0.20;;
13866;SDS011;7003;46.982;15.248;2023-04-01T11:36:45;0.17;;;0.17;;
13866;SDS011;7003;46.982;15.248;2023-04-01T11:39:27;0.20;;;0.20;;
13866;SDS011;7003;46.982;15.248;2023-04-01T11:42:06;3.15;;;0.50;;
13866;SDS011;7003;46.982;15.248;2023-04-01T11:44:43;0.28;;;0.28;;
13866;SDS011;7003;46.982;15.248;2023-04-01T11:50:23;2.25;;;1.00;;
13866;SDS011;7003;46.982;15.248;2023-04-01T11:53:04;6.95;;;2.58;;
13866;SDS011;7003;46.982;15.248;2023-04-01T11:55:55;0.40;;;0.40;;
13866;SDS011;7003;46.982;15.248;2023-04-01T12:01:45;0.20;;;0.20;;
13866;SDS011;7003;46.982;15.248;2023-04-01T12:07:44;0.25;;;0.25;;
13866;SDS011;7003;46.982;15.248;2023-04-01T12:10:26;1.02;;;0.82;;
13866;SDS011;7003;46.982;15.248;2023-04-01T12:13:07;0.95;;;0.80;;
13866;SDS011;7003;46.982;15.248;2023-04-01T12:15:54;0.60;;;0.60;;
13866;SDS011;7003;46.982;15.248;2023-04-01T12:18:33;2.53;;;0.93;;
13866;SDS011;7003;46.982;15.248;2023-04-01T12:21:11;0.15;;;0.15;;
13866;SDS011;7003;46.982;15.248;2023-04-01T12:33:01;0.20;;;0.20;;
13866;SDS011;7003;46.982;15.248;2023-04-01T12:35:45;0.30;;;0.30;;
13866;SDS011;7003;46.982;15.248;2023-04-01T12:38:25;0.22;;;0.22;;
13866;SDS011;7003;46.982;15.248;2023-04-01T12:41:10;0.30;;;0.30;;
13866;SDS011;7003;46.982;15.248;2023-04-01T12:46:52;0.55;;;0.55;;
13866;SDS011;7003;46.982;15.248;2023-04-01T12:49:55;0.47;;;0.47;;
13866;SDS011;7003;46.982;15.248;2023-04-01T12:52:45;0.50;;;0.50;;
13866;SDS011;7003;46.982;15.248;2023-04-01T12:55:36;0.20;;;0.20;;
13866;SDS011;7003;46.982;15.248;2023-04-01T13:01:22;0.30;;;0.20;;
13866;SDS011;7003;46.982;15.248;2023-04-01T13:07:09;0.32;;;0.32;;
13866;SDS011;7003;46.982;15.248;2023-04-01T13:09:57;0.10;;;0.10;;
13866;SDS011;7003;46.982;15.248;2023-04-01T13:12:40;0.20;;;0.20;;
13866;SDS011;7003;46.982;15.248;2023-04-01T13:15:25;0.30;;;0.30;;
13866;SDS011;7003;46.982;15.248;2023-04-01T13:17:59;0.52;;;0.32;;
13866;SDS011;7003;46.982;15.248;2023-04-01T13:20:40;0.25;;;0.25;;
13866;SDS011;7003;46.982;15.248;2023-04-01T13:23:16;0.57;;;0.57;;
13866;SDS011;7003;46.982;15.248;2023-04-01T13:26:01;0.60;;;0.60;;
13866;SDS011;7003;46.982;15.248;2023-04-01T13:28:43;0.80;;;0.80;;
13866;SDS011;7003;46.982;15.248;2023-04-01T13:31:23;0.10;;;0.10;;
13866;SDS011;7003;46.982;15.248;2023-04-01T13:34:00;0.30;;;0.30;;
13866;SDS011;7003;46.982;15.248;2023-04-01T13:36:44;0.13;;;0.13;;
13866;SDS011;7003;46.982;15.248;2023-04-01T13:39:27;0.15;;;0.15;;
13866;SDS011;7003;46.982;15.248;2023-04-01T13:42:17;0.30;;;0.30;;
13866;SDS011;7003;46.982;15.248;2023-04-01T13:44:54;0.10;;;0.10;;
13866;SDS011;7003;46.982;15.248;2023-04-01T13:47:36;0.82;;;0.32;;
13866;SDS011;7003;46.982;15.248;2023-04-01T13:50:30;0.20;;;0.20;;
13866;SDS011;7003;46.982;15.248;2023-04-01T13:53:14;0.22;;;0.20;;
13866;SDS011;7003;46.982;15.248;2023-04-01T13:56:07;0.80;;;0.40;;
13866;SDS011;7003;46.982;15.248;2023-04-01T14:01:35;0.20;;;0.20;;
13866;SDS011;7003;46.982;15.248;2023-04-01T14:04:28;0.10;;;0.10;;
13866;SDS011;7003;46.982;15.248;2023-04-01T14:07:09;0.20;;;0.15;;
13866;SDS011;7003;46.982;15.248;2023-04-01T14:10:04;0.10;;;0.10;;
13866;SDS011;7003;46.982;15.248;2023-04-01T14:12:41;0.20;;;0.20;;
13866;SDS011;7003;46.982;15.248;2023-04-01T14:15:22;0.17;;;0.17;;
13866;SDS011;7003;46.982;15.248;2023-04-01T14:18:05;0.20;;;0.20;;
13866;SDS011;7003;46.982;15.248;2023-04-01T14:20:50;0.13;;;0.13;;
13866;SDS011;7003;46.982;15.248;2023-04-01T14:23:42;0.13;;;0.13;;
13866;SDS011;7003;46.982;15.248;2023-04-01T14:26:25;0.30;;;0.30;;
13866;SDS011;7003;46.982;15.248;2023-04-01T14:29:11;0.30;;;0.30;;
13866;SDS011;7003;46.982;15.248;2023-04-01T14:32:02;0.40;;;0.40;;
13866;SDS011;7003;46.982;15.248;2023-04-01T14:34:40;0.40;;;0.30;;
13866;SDS011;7003;46.982;15.248;2023-04-01T14:37:34;0.30;;;0.30;;
13866;SDS011;7003;46.982;15.248;2023-04-01T14:40:26;0.40;;;0.40;;
13866;SDS011;7003;46.982;15.248;2023-04-01T14:43:20;0.68;;;0.17;;
13866;SDS011;7003;46.982;15.248;2023-04-01T14:46:08;0.10;;;0.10;;
13866;SDS011;7003;46.982;15.248;2023-04-01T14:48:51;0.40;;;0.40;;
13866;SDS011;7003;46.982;15.248;2023-04-01T14:51:28;0.28;;;0.28;;
13866;SDS011;7003;46.982;15.248;2023-04-01T14:54:05;0.17;;;0.17;;
13866;SDS011;7003;46.982;15.248;2023-04-01T14:56:40;0.98;;;0.80;;
13866;SDS011;7003;46.982;15.248;2023-04-01T14:59:25;0.40;;;0.40;;
13866;SDS011;7003;46.982;15.248;2023-04-01T15:01:57;0.30;;;0.30;;
13866;SDS011;7003;46.982;15.248;2023-04-01T15:04:37;0.63;;;0.40;;
13866;SDS011;7003;46.982;15.248;2023-04-01T15:07:21;0.55;;;0.20;;
13866;SDS011;7003;46.982;15.248;2023-04-01T15:10:10;0.20;;;0.20;;
13866;SDS011;7003;46.982;15.248;2023-04-01T15:12:51;3.00;;;0.43;;
13866;SDS011;7003;46.982;15.248;2023-04-01T15:15:39;0.20;;;0.20;;
13866;SDS011;7003;46.982;15.248;2023-04-01T15:18:21;0.20;;;0.20;;
13866;SDS011;7003;46.982;15.248;2023-04-01T15:21:05;0.30;;;0.30;;
13866;SDS011;7003;46.982;15.248;2023-04-01T15:23:58;0.30;;;0.30;;
13866;SDS011;7003;46.982;15.248;2023-04-01T15:26:48;0.10;;;0.10;;
13866;SDS011;7003;46.982;15.248;2023-04-01T15:29:41;0.30;;;0.30;;
13866;SDS011;7003;46.982;15.248;2023-04-01T15:32:21;0.32;;;0.32;;
13866;SDS011;7003;46.982;15.248;2023-04-01T15:34:59;0.40;;;0.40;;
13866;SDS011;7003;46.982;15.248;2023-04-01T15:37:43;0.63;;;0.57;;
13866;SDS011;7003;46.982;15.248;2023-04-01T15:40:22;0.52;;;0.50;;
13866;SDS011;7003;46.982;15.248;2023-04-01T15:43:02;0.25;;;0.20;;
13866;SDS011;7003;46.982;15.248;2023-04-01T15:45:41;0.20;;;0.20;;
13866;SDS011;7003;46.982;15.248;2023-04-01T15:54:23;0.28;;;0.28;;
13866;SDS011;7003;46.982;15.248;2023-04-01T15:57:04;0.98;;;0.68;;
13866;SDS011;7003;46.982;15.248;2023-04-01T15:59:52;0.70;;;0.70;;
13866;SDS011;7003;46.982;15.248;2023-04-01T16:02:29;0.75;;;0.60;;
13866;SDS011;7003;46.982;15.248;2023-04-01T16:05:05;0.85;;;0.73;;
13866;SDS011;7003;46.982;15.248;2023-04-01T16:07:54;0.98;;;0.98;;
13866;SDS011;7003;46.982;15.248;2023-04-01T16:10:38;0.93;;;0.70;;
13866;SDS011;7003;46.982;15.248;2023-04-01T16:13:19;0.85;;;0.75;;
13866;SDS011;7003;46.982;15.248;2023-04-01T16:16:14;0.40;;;0.30;;
13866;SDS011;7003;46.982;15.248;2023-04-01T16:18:55;0.38;;;0.38;;
13866;SDS011;7003;46.982;15.248;2023-04-01T16:21:43;0.30;;;0.30;;
13866;SDS011;7003;46.982;15.248;2023-04-01T16:24:17;0.20;;;0.20;;
13866;SDS011;7003;46.982;15.248;2023-04-01T16:26:53;0.40;;;0.40;;
13866;SDS011;7003;46.982;15.248;2023-04-01T16:29:27;0.30;;;0.30;;
13866;SDS011;7003;46.982;15.248;2023-04-01T16:32:18;0.75;;;0.75;;
13866;SDS011;7003;46.982;15.248;2023-04-01T16:37:59;0.90;;;0.85;;
13866;SDS011;7003;46.982;15.248;2023-04-01T16:40:37;0.40;;;0.40;;
13866;SDS011;7003;46.982;15.248;2023-04-01T16:43:15;1.40;;;0.77;;
13866;SDS011;7003;46.982;15.248;2023-04-01T16:45:54;0.85;;;0.47;;
13866;SDS011;7003;46.982;15.248;2023-04-01T16:48:45;0.47;;;0.47;;
13866;SDS011;7003;46.982;15.248;2023-04-01T16:51:33;0.77;;;0.32;;
13866;SDS011;7003;46.982;15.248;2023-04-01T16:54:12;1.45;;;1.25;;
13866;SDS011;7003;46.982;15.248;2023-04-01T16:56:45;4.28;;;2.95;;
13866;SDS011;7003;46.982;15.248;2023-04-01T16:59:20;8.55;;;4.28;;
13866;SDS011;7003;46.982;15.248;2023-04-01T17:01:53;2.75;;;2.08;;
13866;SDS011;7003;46.982;15.248;2023-04-01T17:04:27;2.15;;;1.30;;
13866;SDS011;7003;46.982;15.248;2023-04-01T17:07:11;14.32;;;7.30;;
13866;SDS011;7003;46.982;15.248;2023-04-01T17:09:51;22.88;;;11.60;;
13866;SDS011;7003;46.982;15.248;2023-04-01T17:12:29;42.72;;;21.63;;
13866;SDS011;7003;46.982;15.248;2023-04-01T17:15:05;16.70;;;9.68;;
13866;SDS011;7003;46.982;15.248;2023-04-01T17:17:46;6.57;;;3.55;;
13866;SDS011;7003;46.982;15.248;2023-04-01T17:20:40;7.13;;;4.03;;
13866;SDS011;7003;46.982;15.248;2023-04-01T17:23:16;5.47;;;2.33;;
13866;SDS011;7003;46.982;15.248;2023-04-01T17:25:55;3.70;;;1.92;;
13866;SDS011;7003;46.982;15.248;2023-04-01T17:28:36;0.98;;;0.85;;
13866;SDS011;7003;46.982;15.248;2023-04-01T17:31:15;1.02;;;0.93;;
13866;SDS011;7003;46.982;15.248;2023-04-01T17:33:57;4.78;;;1.52;;
13866;SDS011;7003;46.982;15.248;2023-04-01T17:36:36;1.55;;;0.77;;